createdAt,value
2023-01-17T00:00:58.038Z,99.99
2023-01-17T00:03:29.036Z,99.99
2023-01-17T00:06:17.124Z,99.99
2023-01-17T00:09:05.925Z,99.99
2023-01-17T00:11:36.372Z,99.99
2023-01-17T00:14:06.236Z,99.99
2023-01-17T00:16:37.062Z,99.99
2023-01-17T00:19:25.061Z,99.99
2023-01-17T00:22:13.990Z,99.99
2023-01-17T00:25:02.509Z,99.99
2023-01-17T00:27:32.676Z,99.99
2023-01-17T00:30:02.241Z,99.99
2023-01-17T00:32:32.275Z,99.99
2023-01-17T00:35:02.121Z,99.99
2023-01-17T00:37:31.727Z,99.99
2023-01-17T00:40:01.558Z,99.99
2023-01-17T00:42:31.345Z,99.99
2023-01-17T00:45:19.438Z,99.99
2023-01-17T00:48:08.168Z,99.99
2023-01-17T00:50:57.589Z,99.99
2023-01-17T00:53:45.752Z,99.99
2023-01-17T00:56:33.971Z,99.99
2023-01-17T00:59:22.251Z,99.99
2023-01-17T01:02:11.224Z,99.99
2023-01-17T01:04:59.767Z,99.99
2023-01-17T01:07:47.951Z,99.99
2023-01-17T01:10:36.299Z,99.99
2023-01-17T01:13:24.982Z,99.99
2023-01-17T01:16:13.808Z,99.99
2023-01-17T01:19:02.084Z,99.99
2023-01-17T01:21:50.404Z,99.99
2023-01-17T01:24:39.196Z,99.99
2023-01-17T01:27:27.788Z,99.99
2023-01-17T01:30:16.079Z,99.99
2023-01-17T01:33:04.449Z,99.99
2023-01-17T01:35:34.826Z,99.99
2023-01-17T01:38:05.422Z,99.99
2023-01-17T01:40:35.249Z,99.99
2023-01-17T01:43:07.123Z,99.99
2023-01-17T01:45:37.827Z,99.99
2023-01-17T01:48:08.016Z,99.99
2023-01-17T01:50:38.754Z,99.99
2023-01-17T01:53:09.380Z,99.99
2023-01-17T01:55:44.290Z,99.99
2023-01-17T01:58:23.850Z,99.99
2023-01-17T02:00:56.933Z,99.99
2023-01-17T02:03:30.622Z,99.99
2023-01-17T02:06:14.320Z,99.99
2023-01-17T02:08:45.225Z,99.99
2023-01-17T02:11:15.535Z,99.99
2023-01-17T02:13:45.738Z,99.99
2023-01-17T02:16:48.565Z,99.99
2023-01-17T02:19:56.426Z,99.99
2023-01-17T02:23:01.924Z,99.99
2023-01-17T02:26:03.460Z,99.99
2023-01-17T02:29:12.057Z,99.99
2023-01-17T02:32:02.424Z,99.99
2023-01-17T02:34:35.025Z,99.99
2023-01-17T02:37:36.291Z,99.99
2023-01-17T02:40:19.586Z,99.99
2023-01-17T02:42:57.915Z,99.99
2023-01-17T02:45:28.366Z,99.99
2023-01-17T02:47:58.348Z,99.99
2023-01-17T02:50:43.262Z,99.99
2023-01-17T02:53:49.437Z,99.99
2023-01-17T02:56:37.684Z,99.99
2023-01-17T02:59:23.105Z,99.99
2023-01-17T03:02:12.282Z,99.99
2023-01-17T03:04:57.778Z,99.99
2023-01-17T03:07:29.807Z,99.99
2023-01-17T03:10:01.209Z,99.99
2023-01-17T03:12:34.537Z,99.99
2023-01-17T03:15:05.244Z,99.99
2023-01-17T03:17:35.361Z,99.99
2023-01-17T03:20:05.454Z,99.99
2023-01-17T03:22:35.855Z,99.99
2023-01-17T03:25:07.102Z,99.99
2023-01-17T03:27:37.958Z,99.99
2023-01-17T03:30:08.628Z,99.99
2023-01-17T03:32:38.461Z,99.99
2023-01-17T03:35:09.084Z,99.99
2023-01-17T03:37:39.093Z,99.99
2023-01-17T03:40:10.032Z,99.99
2023-01-17T03:42:40.924Z,99.99
2023-01-17T03:45:11.397Z,99.99
2023-01-17T03:47:41.663Z,99.99
2023-01-17T03:50:13.466Z,99.99
2023-01-17T03:52:43.687Z,99.99
2023-01-17T03:55:13.573Z,99.99
2023-01-17T03:57:43.451Z,99.99
2023-01-17T04:00:14.341Z,99.99
2023-01-17T04:02:44.591Z,99.99
2023-01-17T04:05:14.494Z,99.99
2023-01-17T04:07:44.580Z,99.99
2023-01-17T04:10:14.373Z,99.99
2023-01-17T04:12:44.252Z,99.99
2023-01-17T04:15:14.442Z,99.99
2023-01-17T04:17:44.412Z,99.99
2023-01-17T04:20:28.372Z,99.99
2023-01-17T04:22:58.610Z,99.99
2023-01-17T04:25:31.241Z,99.99
2023-01-17T04:28:02.995Z,99.99
2023-01-17T04:30:34.074Z,99.99
2023-01-17T04:33:04.726Z,99.99
2023-01-17T04:35:35.866Z,99.99
2023-01-17T04:38:05.843Z,99.99
2023-01-17T04:40:35.678Z,99.99
2023-01-17T04:43:05.631Z,99.99
2023-01-17T04:45:35.452Z,99.99
2023-01-17T04:48:06.490Z,99.99
2023-01-17T04:50:36.662Z,99.99
2023-01-17T04:53:07.211Z,99.99
2023-01-17T04:55:37.187Z,99.99
2023-01-17T04:58:07.407Z,99.99
2023-01-17T05:00:37.213Z,99.99
2023-01-17T05:03:07.037Z,99.99
2023-01-17T05:05:36.888Z,99.99
2023-01-17T05:08:07.044Z,99.99
2023-01-17T05:10:36.862Z,99.99
2023-01-17T05:13:07.739Z,99.99
2023-01-17T05:15:38.623Z,99.99
2023-01-17T05:18:13.018Z,99.99
2023-01-17T05:20:44.624Z,99.99
2023-01-17T05:23:15.177Z,99.99
2023-01-17T05:25:45.897Z,99.99
2023-01-17T05:28:16.802Z,99.99
2023-01-17T05:30:46.922Z,99.99
2023-01-17T05:33:16.788Z,99.99
2023-01-17T05:35:47.662Z,99.99
2023-01-17T05:38:18.195Z,99.99
2023-01-17T05:40:48.643Z,99.99
2023-01-17T05:43:18.443Z,99.99
2023-01-17T05:45:51.044Z,99.99
2023-01-17T05:48:21.988Z,99.99
2023-01-17T05:50:53.371Z,99.99
2023-01-17T05:53:23.754Z,99.99
2023-01-17T05:55:53.529Z,99.99
2023-01-17T05:58:24.355Z,99.99
2023-01-17T06:00:57.084Z,99.99
2023-01-17T06:03:27.758Z,99.99
2023-01-17T06:05:57.557Z,99.99
2023-01-17T06:08:27.377Z,99.99
2023-01-17T06:10:59.730Z,99.99
2023-01-17T06:13:31.388Z,99.99
2023-01-17T06:16:05.388Z,99.99
2023-01-17T06:18:35.644Z,99.99
2023-01-17T06:21:05.526Z,99.99
2023-01-17T06:23:36.069Z,99.99
2023-01-17T06:26:06.782Z,99.99
2023-01-17T06:28:37.236Z,99.99
2023-01-17T06:31:11.613Z,99.99
2023-01-17T06:33:41.980Z,99.99
2023-01-17T06:36:12.110Z,99.99
2023-01-17T06:38:42.399Z,99.99
2023-01-17T06:41:12.172Z,99.99
2023-01-17T06:43:41.927Z,99.99
2023-01-17T06:46:11.776Z,99.99
2023-01-17T06:48:44.699Z,99.99
2023-01-17T06:51:15.276Z,99.99
2023-01-17T06:53:45.090Z,99.99
2023-01-17T06:56:14.871Z,99.99
2023-01-17T06:58:44.715Z,99.99
2023-01-17T07:01:15.237Z,99.99
2023-01-17T07:03:46.194Z,99.99
2023-01-17T07:06:16.804Z,99.99
2023-01-17T07:08:46.614Z,99.99
2023-01-17T07:11:16.478Z,99.99
2023-01-17T07:13:46.316Z,99.99
2023-01-17T07:16:16.640Z,99.99
2023-01-17T07:18:46.438Z,99.99
2023-01-17T07:21:16.988Z,99.99
2023-01-17T07:23:46.972Z,99.99
2023-01-17T07:26:18.572Z,99.99
2023-01-17T07:28:48.593Z,99.99
2023-01-17T07:31:18.620Z,99.99
2023-01-17T07:33:48.421Z,99.99
2023-01-17T07:36:18.688Z,99.99
2023-01-17T07:38:48.778Z,99.99
2023-01-17T07:41:18.667Z,99.99
2023-01-17T07:43:48.456Z,99.99
2023-01-17T07:46:19.420Z,99.99
2023-01-17T07:48:49.397Z,99.99
2023-01-17T07:51:19.190Z,99.99
2023-01-17T07:53:49.868Z,99.99
2023-01-17T07:56:20.486Z,99.99
2023-01-17T07:58:50.245Z,99.99
2023-01-17T08:01:20.213Z,99.99
2023-01-17T08:03:54.818Z,99.99
2023-01-17T08:06:27.529Z,99.99
2023-01-17T08:09:00.142Z,99.99
2023-01-17T08:11:30.190Z,99.99
2023-01-17T08:14:00.915Z,99.99
2023-01-17T08:16:31.144Z,99.99
2023-01-17T08:19:01.196Z,99.99
2023-01-17T08:21:30.974Z,99.99
2023-01-17T08:24:01.024Z,99.99
2023-01-17T08:26:30.815Z,99.99
2023-01-17T08:29:02.239Z,99.99
2023-01-17T08:31:35.218Z,99.99
2023-01-17T08:34:05.736Z,99.99
2023-01-17T08:36:35.532Z,99.99
2023-01-17T08:39:05.829Z,99.99
2023-01-17T08:41:35.596Z,99.99
2023-01-17T08:44:05.809Z,99.99
2023-01-17T08:46:35.602Z,99.99
2023-01-17T08:49:05.395Z,99.99
2023-01-17T08:51:36.042Z,99.99
2023-01-17T08:54:06.161Z,99.99
2023-01-17T08:56:36.389Z,99.99
2023-01-17T08:59:06.660Z,99.99
2023-01-17T09:01:41.904Z,99.99
2023-01-17T09:04:15.484Z,99.99
2023-01-17T09:06:48.644Z,99.99
2023-01-17T09:09:19.892Z,99.99
2023-01-17T09:11:49.880Z,99.99
2023-01-17T09:14:19.748Z,99.99
2023-01-17T09:16:49.883Z,99.99
2023-01-17T09:19:19.739Z,99.99
2023-01-17T09:21:49.912Z,99.99
2023-01-17T09:24:19.954Z,99.99
2023-01-17T09:26:49.826Z,99.99
2023-01-17T09:29:19.910Z,99.99
2023-01-17T09:31:49.952Z,99.99
2023-01-17T09:34:22.669Z,99.99
2023-01-17T09:36:53.362Z,99.99
2023-01-17T09:39:23.153Z,99.99
2023-01-17T09:42:15.378Z,99.99
2023-01-17T09:44:48.688Z,99.99
2023-01-17T09:47:46.414Z,99.99
2023-01-17T09:50:27.417Z,99.99
2023-01-17T09:53:08.494Z,99.99
2023-01-17T09:56:19.247Z,99.99
2023-01-17T09:59:09.704Z,99.99
2023-01-17T10:01:58.447Z,99.99
2023-01-17T10:04:38.328Z,99.99
2023-01-17T10:07:34.054Z,99.99
2023-01-17T10:10:19.222Z,99.99
2023-01-17T10:13:01.167Z,99.99
2023-01-17T10:15:57.008Z,99.75
2023-01-17T10:19:05.152Z,98.77
2023-01-17T10:21:55.594Z,97.82
2023-01-17T10:24:53.075Z,96.86
2023-01-17T10:27:39.874Z,96.79
2023-01-17T10:30:36.691Z,96.51
2023-01-17T10:33:28.906Z,95.55
2023-01-17T10:36:12.696Z,94.97
2023-01-17T10:38:49.370Z,94.74
2023-01-17T10:41:26.640Z,93.77
2023-01-17T10:44:18.937Z,92.93
2023-01-17T10:47:01.897Z,92.72
2023-01-17T10:49:33.326Z,91.28
2023-01-17T10:52:22.897Z,90.69
2023-01-17T10:55:18.164Z,89.35
2023-01-17T10:57:50.797Z,87.76
2023-01-17T11:00:45.062Z,89.25
2023-01-17T11:03:18.921Z,87.05
2023-01-17T11:06:19.092Z,87.39
2023-01-17T11:09:04.690Z,85.91
2023-01-17T11:11:38.674Z,85.24
2023-01-17T11:14:21.717Z,85.68
2023-01-17T11:17:04.331Z,84.53
2023-01-17T11:19:40.324Z,82.63
2023-01-17T11:22:16.649Z,82.98
2023-01-17T11:25:05.272Z,83.61
2023-01-17T11:27:42.158Z,82.52
2023-01-17T11:30:27.278Z,83.08
2023-01-17T11:33:08.204Z,81.17
2023-01-17T11:35:46.633Z,79.89
2023-01-17T11:38:20.726Z,80.52
2023-01-17T11:40:51.916Z,79.66
2023-01-17T11:43:28.030Z,80.34
2023-01-17T11:46:23.855Z,78.40
2023-01-17T11:49:00.446Z,78.88
2023-01-17T11:51:40.805Z,78.71
2023-01-17T11:54:23.891Z,77.09
2023-01-17T11:57:00.428Z,76.94
2023-01-17T11:59:44.902Z,78.94
2023-01-17T12:02:32.907Z,77.69
2023-01-17T12:05:28.431Z,76.42
2023-01-17T12:08:16.258Z,75.45
2023-01-17T12:11:30.690Z,76.73
2023-01-17T12:14:13.654Z,74.87
2023-01-17T12:17:02.135Z,74.56
2023-01-17T12:20:07.054Z,77.07
2023-01-17T12:22:41.850Z,75.58
2023-01-17T12:25:23.828Z,73.82
2023-01-17T12:28:24.788Z,75.46
2023-01-17T12:31:03.429Z,73.86
2023-01-17T12:33:54.429Z,78.28
2023-01-17T12:36:34.246Z,75.79
2023-01-17T12:39:09.180Z,76.60
2023-01-17T12:42:25.214Z,76.74
2023-01-17T12:45:33.205Z,74.65
2023-01-17T12:48:22.846Z,74.92
2023-01-17T12:51:28.943Z,79.09
2023-01-17T12:54:02.213Z,75.94
2023-01-17T12:56:42.826Z,75.32
2023-01-17T13:00:03.865Z,77.74
2023-01-17T13:02:56.664Z,74.65
2023-01-17T13:05:42.910Z,74.82
2023-01-17T13:08:30.686Z,73.20
2023-01-17T13:11:08.058Z,70.82
2023-01-17T13:13:38.602Z,71.80
2023-01-17T13:16:14.687Z,71.25
2023-01-17T13:18:50.374Z,71.16
2023-01-17T13:21:38.029Z,74.84
2023-01-17T13:24:41.989Z,77.73
2023-01-17T13:27:28.562Z,74.96
2023-01-17T13:30:30.909Z,76.20
2023-01-17T13:33:25.353Z,74.51
2023-01-17T13:36:35.457Z,74.90
2023-01-17T13:39:34.298Z,74.40
2023-01-17T13:42:31.273Z,77.25
2023-01-17T13:45:09.095Z,72.30
2023-01-17T13:47:42.780Z,72.18
2023-01-17T13:50:40.198Z,73.90
2023-01-17T13:53:40.362Z,75.10
2023-01-17T13:56:26.184Z,72.65
2023-01-17T13:59:04.884Z,70.25
2023-01-17T14:01:44.340Z,73.47
2023-01-17T14:04:15.145Z,78.53
2023-01-17T14:07:03.197Z,80.81
2023-01-17T14:09:43.664Z,79.24
2023-01-17T14:12:15.196Z,71.70
2023-01-17T14:14:51.428Z,70.41
2023-01-17T14:17:26.575Z,68.53
2023-01-17T14:20:04.024Z,68.24
2023-01-17T14:22:39.703Z,67.47
2023-01-17T14:25:13.369Z,68.54
2023-01-17T14:28:07.273Z,70.14
2023-01-17T14:30:40.819Z,71.52
2023-01-17T14:33:26.228Z,71.22
2023-01-17T14:36:02.480Z,67.48
2023-01-17T14:38:37.909Z,67.91
2023-01-17T14:41:12.999Z,66.56
2023-01-17T14:43:45.041Z,65.28
2023-01-17T14:46:33.816Z,71.29
2023-01-17T14:49:09.488Z,68.19
2023-01-17T14:51:40.150Z,69.01
2023-01-17T14:54:37.954Z,73.06
2023-01-17T14:57:17.602Z,73.88
2023-01-17T14:59:48.267Z,74.86
2023-01-17T15:02:19.870Z,76.52
2023-01-17T15:04:56.075Z,79.90
2023-01-17T15:07:28.435Z,80.02
2023-01-17T15:09:59.128Z,80.27
2023-01-17T15:12:30.267Z,80.93
2023-01-17T15:15:00.496Z,81.39
2023-01-17T15:17:30.315Z,81.36
2023-01-17T15:20:04.836Z,80.17
2023-01-17T15:22:35.641Z,81.19
2023-01-17T15:25:06.638Z,79.23
2023-01-17T15:27:37.024Z,79.76
2023-01-17T15:30:08.602Z,76.69
2023-01-17T15:32:39.799Z,74.06
2023-01-17T15:35:19.684Z,72.65
2023-01-17T15:37:55.660Z,74.29
2023-01-17T15:40:27.211Z,74.23
2023-01-17T15:42:59.763Z,75.92
2023-01-17T15:45:32.871Z,72.75
2023-01-17T15:48:42.753Z,71.88
2023-01-17T15:51:14.236Z,68.17
2023-01-17T15:53:45.402Z,65.95
2023-01-17T15:56:34.869Z,66.91
2023-01-17T15:59:30.031Z,66.92
2023-01-17T16:02:00.682Z,64.46
2023-01-17T16:04:36.467Z,66.20
2023-01-17T16:07:37.298Z,66.99
2023-01-17T16:10:18.836Z,68.86
2023-01-17T16:12:53.858Z,69.48
2023-01-17T16:15:25.115Z,71.64
2023-01-17T16:17:59.122Z,71.87
2023-01-17T16:20:58.385Z,74.37
2023-01-17T16:23:31.944Z,69.05
2023-01-17T16:26:02.357Z,70.08
2023-01-17T16:28:32.644Z,65.31
2023-01-17T16:31:02.823Z,62.87
2023-01-17T16:33:33.102Z,62.00
2023-01-17T16:36:03.203Z,63.80
2023-01-17T16:38:33.420Z,66.45
2023-01-17T16:41:06.085Z,68.87
2023-01-17T16:43:36.375Z,67.22
2023-01-17T16:46:06.408Z,65.17
2023-01-17T16:48:38.307Z,61.71
2023-01-17T16:51:09.756Z,61.65
2023-01-17T16:53:40.200Z,60.00
2023-01-17T16:56:17.724Z,58.81
2023-01-17T16:58:48.660Z,58.89
2023-01-17T17:01:22.134Z,58.93
2023-01-17T17:03:52.509Z,58.91
2023-01-17T17:06:22.845Z,61.65
2023-01-17T17:08:52.859Z,65.52
2023-01-17T17:11:26.938Z,69.73
2023-01-17T17:13:58.269Z,70.23
2023-01-17T17:16:36.092Z,71.44
2023-01-17T17:19:07.574Z,76.45
2023-01-17T17:21:42.118Z,77.58
2023-01-17T17:24:17.309Z,79.30
2023-01-17T17:26:47.784Z,79.65
2023-01-17T17:29:17.673Z,80.68
2023-01-17T17:31:47.735Z,80.34
2023-01-17T17:34:18.092Z,82.25
2023-01-17T17:36:48.630Z,81.88
2023-01-17T17:39:18.734Z,83.38
2023-01-17T17:41:49.468Z,85.09
2023-01-17T17:44:19.324Z,86.50
2023-01-17T17:46:52.227Z,86.87
2023-01-17T17:49:24.982Z,87.35
2023-01-17T17:51:56.199Z,87.06
2023-01-17T17:54:28.493Z,85.63
2023-01-17T17:56:59.508Z,86.53
2023-01-17T17:59:30.968Z,86.88
2023-01-17T18:02:01.531Z,86.65
2023-01-17T18:04:32.328Z,87.23
2023-01-17T18:07:02.268Z,89.12
2023-01-17T18:09:32.492Z,90.18
2023-01-17T18:12:04.017Z,92.70
2023-01-17T18:14:34.119Z,93.37
2023-01-17T18:17:03.961Z,95.62
2023-01-17T18:19:33.782Z,98.13
2023-01-17T18:22:04.908Z,97.79
2023-01-17T18:24:35.373Z,99.70
2023-01-17T18:27:05.302Z,99.99
2023-01-17T18:29:35.342Z,99.99
2023-01-17T18:32:05.277Z,99.99
2023-01-17T18:34:36.812Z,99.99
2023-01-17T18:37:07.252Z,99.99
2023-01-17T18:39:37.453Z,99.99
2023-01-17T18:42:07.356Z,99.99
2023-01-17T18:44:37.235Z,99.99
2023-01-17T18:47:07.326Z,99.99
2023-01-17T18:49:37.141Z,99.99
2023-01-17T18:52:09.157Z,99.99
2023-01-17T18:54:40.531Z,99.99
2023-01-17T18:57:10.602Z,99.99
2023-01-17T18:59:41.005Z,99.99
2023-01-17T19:02:11.627Z,99.99
2023-01-17T19:04:41.849Z,99.99
2023-01-17T19:07:12.755Z,99.99
2023-01-17T19:09:42.630Z,99.99
2023-01-17T19:12:12.490Z,99.99
2023-01-17T19:14:42.464Z,99.99
2023-01-17T19:17:12.290Z,99.99
2023-01-17T19:19:42.592Z,99.99
2023-01-17T19:22:12.640Z,99.99
2023-01-17T19:24:42.766Z,99.99
2023-01-17T19:27:14.197Z,99.99
2023-01-17T19:29:44.820Z,99.99
2023-01-17T19:32:14.658Z,99.99
2023-01-17T19:34:44.473Z,99.99
2023-01-17T19:37:14.728Z,99.99
2023-01-17T19:39:44.534Z,99.99
2023-01-17T19:42:16.803Z,99.99
2023-01-17T19:44:47.386Z,99.99
2023-01-17T19:47:17.334Z,99.99
2023-01-17T19:49:47.215Z,99.99
2023-01-17T19:52:18.371Z,99.99
2023-01-17T19:54:49.305Z,99.99
2023-01-17T19:57:23.188Z,99.99
2023-01-17T19:59:53.415Z,99.99
2023-01-17T20:02:24.511Z,99.99
2023-01-17T20:04:54.626Z,99.99
2023-01-17T20:07:25.019Z,99.99
2023-01-17T20:09:56.596Z,99.99
2023-01-17T20:12:27.098Z,99.99
2023-01-17T20:14:56.877Z,99.99
2023-01-17T20:17:26.780Z,99.99
2023-01-17T20:19:56.570Z,99.99
2023-01-17T20:22:26.880Z,99.99
2023-01-17T20:24:57.165Z,99.99
2023-01-17T20:27:27.773Z,99.99
2023-01-17T20:30:01.411Z,99.99
2023-01-17T20:32:35.546Z,99.99
2023-01-17T20:35:05.984Z,99.99
2023-01-17T20:37:36.429Z,99.99
2023-01-17T20:40:08.338Z,99.99
2023-01-17T20:42:39.757Z,99.99
2023-01-17T20:45:10.559Z,99.99
2023-01-17T20:47:40.612Z,99.99
2023-01-17T20:50:10.967Z,99.99
2023-01-17T20:52:41.407Z,99.99
2023-01-17T20:55:11.620Z,99.99
2023-01-17T20:57:42.159Z,99.99
2023-01-17T21:00:13.460Z,99.99
2023-01-17T21:02:44.720Z,99.99
2023-01-17T21:05:15.737Z,99.99
2023-01-17T21:07:45.580Z,99.99
2023-01-17T21:10:15.549Z,99.99
2023-01-17T21:12:45.822Z,99.99
2023-01-17T21:15:18.595Z,99.99
2023-01-17T21:17:48.732Z,99.99
2023-01-17T21:20:19.060Z,99.99
2023-01-17T21:22:49.052Z,99.99
2023-01-17T21:25:20.673Z,99.99
2023-01-17T21:27:51.605Z,99.99
2023-01-17T21:30:22.046Z,99.99
2023-01-17T21:32:52.073Z,99.99
2023-01-17T21:35:21.886Z,99.99
2023-01-17T21:37:52.263Z,99.99
2023-01-17T21:40:22.299Z,99.99
2023-01-17T21:42:54.003Z,99.99
2023-01-17T21:45:27.362Z,99.99
2023-01-17T21:47:57.782Z,99.99
2023-01-17T21:50:33.314Z,99.99
2023-01-17T21:53:05.543Z,99.99
2023-01-17T21:55:53.656Z,99.99
2023-01-17T21:58:41.896Z,99.99
2023-01-17T22:01:19.392Z,99.99
2023-01-17T22:04:00.415Z,99.99
2023-01-17T22:06:40.218Z,99.99
2023-01-17T22:09:10.619Z,99.99
2023-01-17T22:11:40.776Z,99.99
2023-01-17T22:14:11.119Z,99.99
2023-01-17T22:16:40.916Z,99.99
2023-01-17T22:19:10.794Z,99.99
2023-01-17T22:21:40.989Z,99.99
2023-01-17T22:24:17.088Z,99.99
2023-01-17T22:26:47.819Z,99.99
2023-01-17T22:29:20.479Z,99.99
2023-01-17T22:31:50.736Z,99.99
2023-01-17T22:34:20.619Z,99.99
2023-01-17T22:36:50.661Z,99.99
2023-01-17T22:39:20.496Z,99.99
2023-01-17T22:41:50.979Z,99.99
2023-01-17T22:44:20.929Z,99.99
2023-01-17T22:46:51.136Z,99.99
2023-01-17T22:49:24.502Z,99.99
2023-01-17T22:51:55.037Z,99.99
2023-01-17T22:54:25.496Z,99.99
2023-01-17T22:56:55.755Z,99.99
2023-01-17T22:59:25.618Z,99.99
2023-01-17T23:01:55.586Z,99.99
2023-01-17T23:04:25.451Z,99.99
2023-01-17T23:06:55.772Z,99.99
2023-01-17T23:09:25.706Z,99.99
2023-01-17T23:11:56.404Z,99.99
2023-01-17T23:14:52.317Z,99.99
2023-01-17T23:17:43.161Z,99.99
2023-01-17T23:20:14.559Z,99.99
2023-01-17T23:22:46.067Z,99.99
2023-01-17T23:25:16.106Z,99.99
2023-01-17T23:28:06.486Z,99.99
2023-01-17T23:30:41.511Z,99.99
2023-01-17T23:33:16.464Z,99.99
2023-01-17T23:35:47.949Z,99.99
2023-01-17T23:38:34.614Z,99.99
2023-01-17T23:41:28.669Z,99.99
2023-01-17T23:44:01.114Z,99.99
2023-01-17T23:46:31.949Z,99.99
2023-01-17T23:49:01.962Z,99.99
2023-01-17T23:51:32.838Z,99.99
2023-01-17T23:54:06.591Z,99.99
2023-01-17T23:56:36.800Z,99.99
2023-01-17T23:59:06.945Z,99.99
